createdAt,value
2019-05-13T00:02:04.616Z,99.90
2019-05-13T00:04:34.414Z,99.90
2019-05-13T00:07:04.747Z,99.90
2019-05-13T00:09:34.513Z,99.90
2019-05-13T00:12:04.886Z,99.90
2019-05-13T00:14:34.700Z,99.90
2019-05-13T00:17:04.742Z,99.90
2019-05-13T00:19:34.309Z,99.90
2019-05-13T00:22:04.093Z,99.90
2019-05-13T00:24:34.185Z,99.90
2019-05-13T00:27:04.234Z,99.90
2019-05-13T00:29:34.261Z,99.90
2019-05-13T00:32:04.835Z,99.90
2019-05-13T00:34:34.624Z,99.90
2019-05-13T00:37:11.210Z,99.90
2019-05-13T00:39:35.469Z,99.90
2019-05-13T00:42:05.031Z,99.90
2019-05-13T00:44:34.602Z,99.90
2019-05-13T00:47:04.637Z,99.90
2019-05-13T00:49:34.807Z,99.90
2019-05-13T00:52:04.645Z,99.90
2019-05-13T00:54:34.363Z,99.90
2019-05-13T00:57:04.618Z,99.90
2019-05-13T00:59:34.300Z,99.90
2019-05-13T01:02:04.371Z,99.90
2019-05-13T01:04:34.152Z,99.90
2019-05-13T01:07:04.537Z,99.90
2019-05-13T01:09:34.465Z,99.90
2019-05-13T01:12:04.515Z,99.90
2019-05-13T01:14:34.463Z,99.90
2019-05-13T01:17:04.252Z,99.90
2019-05-13T01:19:34.356Z,99.90
2019-05-13T01:22:04.056Z,99.90
2019-05-13T01:24:34.053Z,99.90
2019-05-13T01:27:04.183Z,99.90
2019-05-13T01:29:34.435Z,99.90
2019-05-13T01:32:04.639Z,99.90
2019-05-13T01:34:34.295Z,99.90
2019-05-13T01:37:04.422Z,99.90
2019-05-13T01:39:34.889Z,99.90
2019-05-13T01:42:05.167Z,99.90
2019-05-13T01:44:34.641Z,99.90
2019-05-13T01:47:04.786Z,99.90
2019-05-13T01:49:34.537Z,99.90
2019-05-13T01:52:04.302Z,99.90
2019-05-13T01:54:34.169Z,99.90
2019-05-13T01:57:04.535Z,99.90
2019-05-13T01:59:34.843Z,99.90
2019-05-13T02:02:05.540Z,99.90
2019-05-13T02:04:35.029Z,99.90
2019-05-13T02:07:04.509Z,99.90
2019-05-13T02:09:34.741Z,99.90
2019-05-13T02:12:04.985Z,99.90
2019-05-13T02:14:34.976Z,99.90
2019-05-13T02:17:04.802Z,99.90
2019-05-13T02:19:34.342Z,99.90
2019-05-13T02:22:04.313Z,99.90
2019-05-13T02:24:34.380Z,99.90
2019-05-13T02:27:04.604Z,99.90
2019-05-13T02:29:34.570Z,99.90
2019-05-13T02:32:04.401Z,99.90
2019-05-13T02:34:33.891Z,99.90
2019-05-13T02:37:03.689Z,99.90
2019-05-13T02:39:33.654Z,99.90
2019-05-13T02:42:04.021Z,99.90
2019-05-13T02:44:34.244Z,99.90
2019-05-13T02:47:04.148Z,99.90
2019-05-13T02:49:34.121Z,99.90
2019-05-13T02:52:03.621Z,99.90
2019-05-13T02:54:34.484Z,99.90
2019-05-13T02:57:04.456Z,99.90
2019-05-13T02:59:34.108Z,99.90
2019-05-13T03:02:04.270Z,99.90
2019-05-13T03:04:33.994Z,99.90
2019-05-13T03:07:03.534Z,99.90
2019-05-13T03:09:33.387Z,99.90
2019-05-13T03:12:04.265Z,99.90
2019-05-13T03:14:34.015Z,99.90
2019-05-13T03:17:05.157Z,99.90
2019-05-13T03:19:34.677Z,99.90
2019-05-13T03:22:04.258Z,99.90
2019-05-13T03:24:33.911Z,99.90
2019-05-13T03:27:03.536Z,99.90
2019-05-13T03:29:33.325Z,99.90
2019-05-13T03:32:06.923Z,99.90
2019-05-13T03:34:36.560Z,99.90
2019-05-13T03:37:07.205Z,99.90
2019-05-13T03:39:36.888Z,99.90
2019-05-13T03:42:06.396Z,99.90
2019-05-13T03:44:37.181Z,99.90
2019-05-13T03:47:12.410Z,99.90
2019-05-13T03:49:43.680Z,99.90
2019-05-13T03:52:13.741Z,99.90
2019-05-13T03:54:43.947Z,99.90
2019-05-13T03:57:13.704Z,99.90
2019-05-13T03:59:43.997Z,99.90
2019-05-13T04:02:13.791Z,99.90
2019-05-13T04:04:43.516Z,99.90
2019-05-13T04:07:13.709Z,99.90
2019-05-13T04:09:43.374Z,99.90
2019-05-13T04:12:13.731Z,99.90
2019-05-13T04:14:43.990Z,99.90
2019-05-13T04:17:13.459Z,99.90
2019-05-13T04:19:43.086Z,99.90
2019-05-13T04:22:13.180Z,99.90
2019-05-13T04:24:42.954Z,99.90
2019-05-13T04:27:13.416Z,99.90
2019-05-13T04:29:43.519Z,99.90
2019-05-13T04:32:33.603Z,99.90
2019-05-13T04:35:04.419Z,99.90
2019-05-13T04:37:34.068Z,99.90
2019-05-13T04:40:05.904Z,99.90
2019-05-13T04:42:35.438Z,99.90
2019-05-13T04:45:06.145Z,99.90
2019-05-13T04:47:35.786Z,99.90
2019-05-13T04:50:07.793Z,99.90
2019-05-13T04:52:37.372Z,99.90
2019-05-13T04:55:07.906Z,99.90
2019-05-13T04:57:37.678Z,99.90
2019-05-13T05:00:08.105Z,99.90
2019-05-13T05:03:04.752Z,98.70
2019-05-13T05:05:52.777Z,98.30
2019-05-13T05:08:48.177Z,96.70
2019-05-13T05:11:46.724Z,95.00
2019-05-13T05:14:35.733Z,93.10
2019-05-13T05:17:24.995Z,90.20
2019-05-13T05:20:13.298Z,86.00
2019-05-13T05:23:01.778Z,79.00
2019-05-13T05:25:47.479Z,70.50
2019-05-13T05:28:51.769Z,63.70
2019-05-13T05:32:03.720Z,60.70
2019-05-13T05:35:26.356Z,57.90
2019-05-13T05:38:12.774Z,55.90
2019-05-13T05:40:45.117Z,55.80
2019-05-13T05:43:17.506Z,61.50
2019-05-13T05:45:47.233Z,67.30
2019-05-13T05:48:18.660Z,69.30
2019-05-13T05:50:51.439Z,75.20
2019-05-13T05:53:23.963Z,73.90
2019-05-13T05:55:54.943Z,72.90
2019-05-13T05:58:25.025Z,82.80
2019-05-13T06:00:56.807Z,90.10
2019-05-13T06:03:27.719Z,83.10
2019-05-13T06:05:57.647Z,78.90
2019-05-13T06:08:27.243Z,76.00
2019-05-13T06:10:56.745Z,76.10
2019-05-13T06:13:26.221Z,78.50
2019-05-13T06:15:55.973Z,71.20
2019-05-13T06:18:25.514Z,63.20
2019-05-13T06:20:55.081Z,65.20
2019-05-13T06:23:24.702Z,58.50
2019-05-13T06:25:54.387Z,60.80
2019-05-13T06:28:24.091Z,69.10
2019-05-13T06:30:53.857Z,68.70
2019-05-13T06:33:23.601Z,70.20
2019-05-13T06:35:53.157Z,72.20
2019-05-13T06:38:22.815Z,72.10
2019-05-13T06:41:03.274Z,70.10
2019-05-13T06:43:23.594Z,68.90
2019-05-13T06:45:53.274Z,69.60
2019-05-13T06:48:23.213Z,73.80
2019-05-13T06:50:52.865Z,69.70
2019-05-13T06:53:22.350Z,71.40
2019-05-13T06:55:52.400Z,70.50
2019-05-13T06:58:22.393Z,71.40
2019-05-13T07:00:52.063Z,72.90
2019-05-13T07:03:22.139Z,78.00
2019-05-13T07:05:52.499Z,79.00
2019-05-13T07:08:22.365Z,73.20
2019-05-13T07:10:52.023Z,79.20
2019-05-13T07:13:22.006Z,83.90
2019-05-13T07:15:52.266Z,80.30
2019-05-13T07:18:22.218Z,78.00
2019-05-13T07:20:53.059Z,74.00
2019-05-13T07:23:22.835Z,78.90
2019-05-13T07:25:52.760Z,78.80
2019-05-13T07:28:22.265Z,76.80
2019-05-13T07:30:51.788Z,74.10
2019-05-13T07:33:21.563Z,74.50
2019-05-13T07:35:57.357Z,73.60
2019-05-13T07:38:22.900Z,78.30
2019-05-13T07:41:04.799Z,73.40
2019-05-13T07:43:34.367Z,73.00
2019-05-13T07:46:04.264Z,73.00
2019-05-13T07:48:33.754Z,73.10
2019-05-13T07:51:04.414Z,75.60
2019-05-13T07:53:34.531Z,78.20
2019-05-13T07:56:04.035Z,76.60
2019-05-13T07:58:37.138Z,69.40
2019-05-13T08:01:05.075Z,71.60
2019-05-13T08:03:34.641Z,63.50
2019-05-13T08:06:04.184Z,63.50
2019-05-13T08:08:33.680Z,66.60
2019-05-13T08:11:03.187Z,67.00
2019-05-13T08:13:32.686Z,61.40
2019-05-13T08:16:02.800Z,60.00
2019-05-13T08:18:32.451Z,56.20
2019-05-13T08:21:02.526Z,57.00
2019-05-13T08:23:32.551Z,58.80
2019-05-13T08:26:02.585Z,60.30
2019-05-13T08:28:32.646Z,62.10
2019-05-13T08:31:02.420Z,59.90
2019-05-13T08:33:32.445Z,59.30
2019-05-13T08:36:02.006Z,56.30
2019-05-13T08:38:32.165Z,54.20
2019-05-13T08:41:02.007Z,52.80
2019-05-13T08:43:31.970Z,49.20
2019-05-13T08:46:02.650Z,49.40
2019-05-13T08:48:32.518Z,47.80
2019-05-13T08:51:03.211Z,51.70
2019-05-13T08:53:33.241Z,52.40
2019-05-13T08:56:02.819Z,51.30
2019-05-13T08:58:32.361Z,49.10
2019-05-13T09:01:02.589Z,48.70
2019-05-13T09:03:32.804Z,45.90
2019-05-13T09:06:03.042Z,45.60
2019-05-13T09:08:33.013Z,44.30
2019-05-13T09:11:02.899Z,43.20
2019-05-13T09:13:33.094Z,40.70
2019-05-13T09:16:03.182Z,43.40
2019-05-13T09:18:32.848Z,44.20
2019-05-13T09:21:02.971Z,41.40
2019-05-13T09:23:32.513Z,41.30
2019-05-13T09:26:02.699Z,45.20
2019-05-13T09:28:32.683Z,40.70
2019-05-13T09:31:02.432Z,39.70
2019-05-13T09:33:32.738Z,42.00
2019-05-13T09:36:02.875Z,40.30
2019-05-13T09:38:32.798Z,40.50
2019-05-13T09:41:02.520Z,44.10
2019-05-13T09:43:32.148Z,45.20
2019-05-13T09:46:02.582Z,43.30
2019-05-13T09:48:32.360Z,42.30
2019-05-13T09:51:02.682Z,41.60
2019-05-13T09:53:32.897Z,41.30
2019-05-13T09:56:02.709Z,40.20
2019-05-13T09:58:33.251Z,43.80
2019-05-13T10:01:03.056Z,41.10
2019-05-13T10:03:33.418Z,41.60
2019-05-13T10:06:02.984Z,43.20
2019-05-13T10:08:32.988Z,42.40
2019-05-13T10:11:02.562Z,42.70
2019-05-13T10:13:32.209Z,38.30
2019-05-13T10:16:01.773Z,37.20
2019-05-13T10:18:32.592Z,37.50
2019-05-13T10:21:03.792Z,38.20
2019-05-13T10:23:33.768Z,38.60
2019-05-13T10:26:08.024Z,40.20
2019-05-13T10:28:38.044Z,42.90
2019-05-13T10:31:08.155Z,39.20
2019-05-13T10:33:37.760Z,38.50
2019-05-13T10:36:08.392Z,37.60
2019-05-13T10:38:38.020Z,36.30
2019-05-13T10:41:07.508Z,36.50
2019-05-13T10:43:43.269Z,41.30
2019-05-13T10:46:08.317Z,39.10
2019-05-13T10:48:37.786Z,40.10
2019-05-13T10:51:07.268Z,39.30
2019-05-13T10:53:36.801Z,38.90
2019-05-13T10:56:06.534Z,36.90
2019-05-13T10:58:36.062Z,38.10
2019-05-13T11:01:06.085Z,39.00
2019-05-13T11:03:36.041Z,41.10
2019-05-13T11:06:05.852Z,42.60
2019-05-13T11:08:35.335Z,38.70
2019-05-13T11:11:05.020Z,41.90
2019-05-13T11:13:50.835Z,39.30
2019-05-13T11:16:06.293Z,40.10
2019-05-13T11:18:36.085Z,43.10
2019-05-13T11:21:05.731Z,41.70
2019-05-13T11:23:35.571Z,42.40
2019-05-13T11:26:05.428Z,39.00
2019-05-13T11:28:35.083Z,40.70
2019-05-13T11:31:04.567Z,43.40
2019-05-13T11:33:34.240Z,40.50
2019-05-13T11:36:03.883Z,39.00
2019-05-13T11:38:33.554Z,38.50
2019-05-13T11:41:04.004Z,37.60
2019-05-13T11:43:33.858Z,40.10
2019-05-13T11:46:03.840Z,37.30
2019-05-13T11:48:33.637Z,36.30
2019-05-13T11:51:04.262Z,39.70
2019-05-13T11:53:37.470Z,39.50
2019-05-13T11:56:05.568Z,37.30
2019-05-13T11:58:35.525Z,41.70
2019-05-13T12:01:06.151Z,39.60
2019-05-13T12:03:35.632Z,40.80
2019-05-13T12:06:05.286Z,41.00
2019-05-13T12:08:34.962Z,42.20
2019-05-13T12:11:05.098Z,43.20
2019-05-13T12:13:36.198Z,38.70
2019-05-13T12:16:05.797Z,38.60
2019-05-13T12:18:41.434Z,40.80
2019-05-13T12:21:06.572Z,38.90
2019-05-13T12:23:36.087Z,41.20
2019-05-13T12:26:06.065Z,40.00
2019-05-13T12:28:35.600Z,39.20
2019-05-13T12:31:05.192Z,41.10
2019-05-13T12:33:34.765Z,40.60
2019-05-13T12:36:04.634Z,40.10
2019-05-13T12:38:34.272Z,39.50
2019-05-13T12:41:05.219Z,39.70
2019-05-13T12:43:35.196Z,38.40
2019-05-13T12:46:05.114Z,40.40
2019-05-13T12:48:34.696Z,41.20
2019-05-13T12:51:04.197Z,39.70
2019-05-13T12:53:33.672Z,39.80
2019-05-13T12:56:03.822Z,39.40
2019-05-13T12:58:34.297Z,41.70
2019-05-13T13:01:04.051Z,36.20
2019-05-13T13:03:33.630Z,34.40
2019-05-13T13:06:25.772Z,36.00
2019-05-13T13:08:43.461Z,39.50
2019-05-13T13:11:06.226Z,40.30
2019-05-13T13:13:57.343Z,40.00
2019-05-13T13:16:07.443Z,40.90
2019-05-13T13:18:37.358Z,40.30
2019-05-13T13:21:08.142Z,39.30
2019-05-13T13:23:38.199Z,38.70
2019-05-13T13:26:15.468Z,37.30
2019-05-13T13:28:43.140Z,40.10
2019-05-13T13:31:12.897Z,36.60
2019-05-13T13:33:44.649Z,37.30
2019-05-13T13:36:15.640Z,38.40
2019-05-13T13:38:44.437Z,36.80
2019-05-13T13:41:22.397Z,39.40
2019-05-13T13:43:45.390Z,39.00
2019-05-13T13:46:32.298Z,37.50
2019-05-13T13:48:46.109Z,36.90
2019-05-13T13:51:15.702Z,34.20
2019-05-13T13:53:45.516Z,34.30
2019-05-13T13:56:15.313Z,37.60
2019-05-13T13:58:45.064Z,36.70
2019-05-13T14:01:19.758Z,34.50
2019-05-13T14:03:46.460Z,36.80
2019-05-13T14:07:08.994Z,36.00
2019-05-13T14:08:47.489Z,34.50
2019-05-13T14:11:19.169Z,38.20
2019-05-13T14:13:48.344Z,35.00
2019-05-13T14:16:28.006Z,38.00
2019-05-13T14:18:49.257Z,36.50
2019-05-13T14:21:18.793Z,37.00
2019-05-13T14:23:48.247Z,39.10
2019-05-13T14:26:18.171Z,36.80
2019-05-13T14:28:47.776Z,39.20
2019-05-13T14:31:17.371Z,38.50
2019-05-13T14:33:46.955Z,40.60
2019-05-13T14:36:19.360Z,38.10
2019-05-13T14:38:48.086Z,36.60
2019-05-13T14:41:17.817Z,39.10
2019-05-13T14:43:47.290Z,36.10
2019-05-13T14:46:16.784Z,36.60
2019-05-13T14:48:46.284Z,40.30
2019-05-13T14:51:16.397Z,40.30
2019-05-13T14:53:45.917Z,38.60
2019-05-13T14:56:15.454Z,37.20
2019-05-13T14:58:44.947Z,35.50
2019-05-13T15:01:19.800Z,36.20
2019-05-13T15:03:45.786Z,35.10
2019-05-13T15:06:15.307Z,35.10
2019-05-13T15:08:45.123Z,34.30
2019-05-13T15:11:15.030Z,34.20
2019-05-13T15:13:44.505Z,34.10
2019-05-13T15:16:14.024Z,34.00
2019-05-13T15:18:43.916Z,35.90
2019-05-13T15:21:13.419Z,34.00
2019-05-13T15:23:44.461Z,33.80
2019-05-13T15:26:14.163Z,33.80
2019-05-13T15:28:43.773Z,35.30
2019-05-13T15:31:13.604Z,36.60
2019-05-13T15:33:43.200Z,38.80
2019-05-13T15:36:12.709Z,37.50
2019-05-13T15:38:42.347Z,38.10
2019-05-13T15:41:15.586Z,37.50
2019-05-13T15:43:43.792Z,38.30
2019-05-13T15:46:13.680Z,37.00
2019-05-13T15:48:43.239Z,38.10
2019-05-13T15:51:12.946Z,38.60
2019-05-13T15:53:43.753Z,37.90
2019-05-13T15:56:13.374Z,39.00
2019-05-13T15:58:44.498Z,38.40
2019-05-13T16:01:14.504Z,37.70
2019-05-13T16:03:44.009Z,37.10
2019-05-13T16:06:13.496Z,36.40
2019-05-13T16:08:43.468Z,36.40
2019-05-13T16:11:13.177Z,36.80
2019-05-13T16:13:42.944Z,38.80
2019-05-13T16:16:12.972Z,37.50
2019-05-13T16:18:42.637Z,37.20
2019-05-13T16:21:12.378Z,37.20
2019-05-13T16:23:42.829Z,37.00
2019-05-13T16:26:15.926Z,38.30
2019-05-13T16:28:45.459Z,37.30
2019-05-13T16:31:15.300Z,38.30
2019-05-13T16:33:44.951Z,38.20
2019-05-13T16:36:14.565Z,38.00
2019-05-13T16:38:44.448Z,39.40
2019-05-13T16:41:14.371Z,39.00
2019-05-13T16:43:43.877Z,40.00
2019-05-13T16:46:13.456Z,39.50
2019-05-13T16:48:43.030Z,38.50
2019-05-13T16:51:12.902Z,40.60
2019-05-13T16:53:42.613Z,40.90
2019-05-13T16:56:25.578Z,37.90
2019-05-13T16:58:43.761Z,39.30
2019-05-13T17:01:13.419Z,38.30
2019-05-13T17:03:43.084Z,37.60
2019-05-13T17:06:12.904Z,37.20
2019-05-13T17:08:42.717Z,38.60
2019-05-13T17:11:12.576Z,38.60
2019-05-13T17:13:43.003Z,39.20
2019-05-13T17:16:12.585Z,39.90
2019-05-13T17:18:42.154Z,38.80
2019-05-13T17:21:11.862Z,38.50
2019-05-13T17:23:41.962Z,38.80
2019-05-13T17:26:11.807Z,39.00
2019-05-13T17:28:41.787Z,40.10
2019-05-13T17:31:11.771Z,40.60
2019-05-13T17:33:41.392Z,41.20
2019-05-13T17:36:12.279Z,41.10
2019-05-13T17:38:42.210Z,40.90
2019-05-13T17:41:12.313Z,42.20
2019-05-13T17:43:41.990Z,42.50
2019-05-13T17:46:11.570Z,42.50
2019-05-13T17:48:41.708Z,42.40
2019-05-13T17:51:13.132Z,43.80
2019-05-13T17:53:42.668Z,42.90
2019-05-13T17:56:13.805Z,43.30
2019-05-13T17:58:43.480Z,43.80
2019-05-13T18:01:12.998Z,43.20
2019-05-13T18:03:42.591Z,43.70
2019-05-13T18:06:12.107Z,44.10
2019-05-13T18:08:41.758Z,45.50
2019-05-13T18:11:11.523Z,46.30
2019-05-13T18:13:43.609Z,46.60
2019-05-13T18:16:12.714Z,46.20
2019-05-13T18:18:46.938Z,44.50
2019-05-13T18:21:13.647Z,45.40
2019-05-13T18:23:43.192Z,47.00
2019-05-13T18:26:15.769Z,47.50
2019-05-13T18:28:44.130Z,46.80
2019-05-13T18:31:13.707Z,47.70
2019-05-13T18:33:43.202Z,47.90
2019-05-13T18:36:12.752Z,48.20
2019-05-13T18:38:42.253Z,49.40
2019-05-13T18:41:12.110Z,49.40
2019-05-13T18:43:41.781Z,49.40
2019-05-13T18:46:12.399Z,50.00
2019-05-13T18:48:57.735Z,50.90
2019-05-13T18:51:13.686Z,49.90
2019-05-13T18:53:43.203Z,51.10
2019-05-13T18:56:12.833Z,51.00
2019-05-13T18:58:42.354Z,52.00
2019-05-13T19:01:11.859Z,52.60
2019-05-13T19:03:41.550Z,50.70
2019-05-13T19:06:11.705Z,52.30
2019-05-13T19:08:41.567Z,51.90
2019-05-13T19:11:11.985Z,51.70
2019-05-13T19:13:41.830Z,52.10
2019-05-13T19:16:12.019Z,52.50
2019-05-13T19:18:42.305Z,53.90
2019-05-13T19:21:11.856Z,54.70
2019-05-13T19:23:41.943Z,54.90
2019-05-13T19:26:11.601Z,53.60
2019-05-13T19:28:41.133Z,54.00
2019-05-13T19:31:11.561Z,54.40
2019-05-13T19:33:41.604Z,55.20
2019-05-13T19:36:11.860Z,55.60
2019-05-13T19:38:42.303Z,56.80
2019-05-13T19:41:11.979Z,55.90
2019-05-13T19:43:42.002Z,57.30
2019-05-13T19:46:31.481Z,57.60
2019-05-13T19:49:01.598Z,57.30
2019-05-13T19:51:32.261Z,58.20
2019-05-13T19:54:02.057Z,58.60
2019-05-13T19:56:32.002Z,59.70
2019-05-13T19:59:01.909Z,59.40
2019-05-13T20:01:32.279Z,59.70
2019-05-13T20:04:02.535Z,59.80
2019-05-13T20:06:32.220Z,61.10
2019-05-13T20:09:01.711Z,60.00
2019-05-13T20:11:31.263Z,61.20
2019-05-13T20:14:01.497Z,62.00
2019-05-13T20:16:32.130Z,66.10
2019-05-13T20:19:01.796Z,64.40
2019-05-13T20:21:31.961Z,66.10
2019-05-13T20:24:01.856Z,65.50
2019-05-13T20:26:32.284Z,68.40
2019-05-13T20:29:02.983Z,67.80
2019-05-13T20:31:32.524Z,69.00
2019-05-13T20:34:02.143Z,71.20
2019-05-13T20:36:31.898Z,71.60
2019-05-13T20:39:02.133Z,72.60
2019-05-13T20:41:31.864Z,73.90
2019-05-13T20:44:01.650Z,74.60
2019-05-13T20:46:32.701Z,75.90
2019-05-13T20:49:02.695Z,77.80
2019-05-13T20:51:32.327Z,78.40
2019-05-13T20:54:02.443Z,81.50
2019-05-13T20:56:32.104Z,81.80
2019-05-13T20:59:01.600Z,84.00
2019-05-13T21:01:31.456Z,85.10
2019-05-13T21:04:01.766Z,88.70
2019-05-13T21:06:31.684Z,88.30
2019-05-13T21:09:01.682Z,90.70
2019-05-13T21:11:31.597Z,91.00
2019-05-13T21:14:01.280Z,92.30
2019-05-13T21:16:30.995Z,92.00
2019-05-13T21:19:01.883Z,93.40
2019-05-13T21:21:31.891Z,93.70
2019-05-13T21:24:01.695Z,94.70
2019-05-13T21:26:31.552Z,95.00
2019-05-13T21:29:01.609Z,96.00
2019-05-13T21:31:31.219Z,96.00
2019-05-13T21:34:01.388Z,97.20
2019-05-13T21:36:30.977Z,98.40
2019-05-13T21:39:01.603Z,98.60
2019-05-13T21:41:31.704Z,98.50
2019-05-13T21:44:01.411Z,99.80
2019-05-13T21:46:30.896Z,99.90
2019-05-13T21:49:01.424Z,99.90
2019-05-13T21:51:31.499Z,99.90
2019-05-13T21:54:01.299Z,99.90
2019-05-13T21:56:31.829Z,99.90
2019-05-13T21:59:01.621Z,99.90
2019-05-13T22:01:31.658Z,99.90
2019-05-13T22:04:01.804Z,99.90
2019-05-13T22:06:32.273Z,99.90
2019-05-13T22:09:02.030Z,99.90
2019-05-13T22:11:34.636Z,99.90
2019-05-13T22:14:02.752Z,99.90
2019-05-13T22:16:32.252Z,99.90
2019-05-13T22:19:01.706Z,99.90
2019-05-13T22:21:31.670Z,99.90
2019-05-13T22:24:02.228Z,99.90
2019-05-13T22:26:31.896Z,99.90
2019-05-13T22:29:02.836Z,99.90
2019-05-13T22:31:32.614Z,99.90
2019-05-13T22:34:02.088Z,99.90
2019-05-13T22:36:31.874Z,99.90
2019-05-13T22:39:02.090Z,99.90
2019-05-13T22:41:31.707Z,99.90
2019-05-13T22:44:01.187Z,99.90
2019-05-13T22:46:32.203Z,99.90
2019-05-13T22:49:02.142Z,99.90
2019-05-13T22:51:32.117Z,99.90
2019-05-13T22:54:01.759Z,99.90
2019-05-13T22:56:31.949Z,99.90
2019-05-13T22:59:02.137Z,99.90
2019-05-13T23:01:32.362Z,99.90
2019-05-13T23:04:02.294Z,99.90
2019-05-13T23:06:32.247Z,99.90
2019-05-13T23:09:01.905Z,99.90
2019-05-13T23:11:31.415Z,99.90
2019-05-13T23:14:09.485Z,99.90
2019-05-13T23:16:32.150Z,99.90
2019-05-13T23:19:01.652Z,99.90
2019-05-13T23:21:31.385Z,99.90
2019-05-13T23:24:02.195Z,99.90
2019-05-13T23:26:31.840Z,99.90
2019-05-13T23:29:01.496Z,99.90
2019-05-13T23:31:31.071Z,99.90
2019-05-13T23:34:01.437Z,99.90
2019-05-13T23:36:31.583Z,99.90
2019-05-13T23:39:01.326Z,99.90
2019-05-13T23:41:30.863Z,99.90
2019-05-13T23:44:24.802Z,99.90
2019-05-13T23:46:51.463Z,99.90
2019-05-13T23:49:21.230Z,99.90
2019-05-13T23:51:56.747Z,99.90
2019-05-13T23:54:26.240Z,99.90
2019-05-13T23:56:55.781Z,99.90
2019-05-13T23:59:25.487Z,99.90
